KGAG/GAG METAR and TAF weather

Enter ICAO airport designator
Station Type Date Time Source
KGAG METAR 2019/05/26 00:53 UTC NOAA

KGAG 260053Z AUTO 10SM CLR 17/16 A2991 RMK AO2 LTG DSNT NE-S RAE37 TSB09E38 SLP110 P0003 T01720156 $


Station Type Date Time Source
KGAG Decoded METAR 2019/05/26 00:53 UTC NOAA

GAGE AIRPORT, OK, United States (KGAG) 36-18N 99-46W 668M
May 25, 2019 - 08:53 PM EDT / 2019.05.26 0053 UTC
Visibility: 10 mile(s):0
Sky conditions: clear
Weather: Lightning observed
Precipitation last hour: 0.03 inches
Temperature: 63.0 F (17.2 C)
Dew Point: 60.1 F (15.6 C)
Relative Humidity: 90%
Pressure (altimeter): 29.91 in. Hg (1012 hPa)
ob: KGAG 260053Z AUTO 10SM CLR 17/16 A2991 RMK AO2 LTG DSNT NE-S RAE37 TSB09E38 SLP110 P0003 T01720156
cycle: 1

Station Type Date Time Source
KGAG TAF 2018/03/21 06:22 UTC NOAA

TAF KGAG 210520Z 2106/2206 VRB04KT P6SM SCT250
FM211300 16008KT P6SM SCT250
FM211800 18012G22KT P6SM BKN250

Example: see airport list